createdAt,value
2018-06-27T00:00:03.946Z,89.30
2018-06-27T00:02:31.620Z,89.10
2018-06-27T00:04:59.302Z,89.10
2018-06-27T00:07:27.357Z,89.10
2018-06-27T00:09:54.978Z,89.00
2018-06-27T00:12:22.614Z,89.00
2018-06-27T00:14:50.304Z,88.80
2018-06-27T00:17:17.957Z,88.90
2018-06-27T00:19:45.662Z,88.70
2018-06-27T00:22:13.310Z,88.30
2018-06-27T00:24:40.976Z,88.20
2018-06-27T00:27:08.682Z,88.20
2018-06-27T00:29:36.314Z,88.10
2018-06-27T00:32:03.958Z,88.00
2018-06-27T00:34:31.697Z,88.10
2018-06-27T00:36:59.486Z,88.30
2018-06-27T00:39:27.152Z,88.00
2018-06-27T00:41:54.814Z,88.40
2018-06-27T00:44:22.478Z,87.90
2018-06-27T00:46:50.124Z,88.10
2018-06-27T00:49:17.810Z,88.10
2018-06-27T00:51:45.545Z,88.00
2018-06-27T00:54:13.177Z,88.30
2018-06-27T00:56:41.413Z,88.50
2018-06-27T00:59:09.452Z,88.50
2018-06-27T01:01:37.669Z,88.50
2018-06-27T01:04:05.408Z,88.60
2018-06-27T01:06:33.114Z,88.80
2018-06-27T01:09:01.065Z,88.90
2018-06-27T01:11:28.732Z,88.80
2018-06-27T01:13:56.402Z,88.90
2018-06-27T01:16:24.102Z,89.50
2018-06-27T01:18:51.743Z,89.60
2018-06-27T01:21:19.505Z,89.70
2018-06-27T01:23:47.180Z,89.70
2018-06-27T01:26:15.043Z,89.70
2018-06-27T01:28:42.720Z,89.50
2018-06-27T01:31:10.384Z,89.60
2018-06-27T01:33:38.033Z,89.60
2018-06-27T01:36:05.682Z,90.10
2018-06-27T01:38:33.436Z,89.70
2018-06-27T01:41:01.186Z,89.90
2018-06-27T01:43:28.902Z,89.50
2018-06-27T01:45:56.520Z,89.50
2018-06-27T01:48:24.174Z,89.80
2018-06-27T01:50:51.911Z,89.70
2018-06-27T01:53:19.544Z,89.80
2018-06-27T01:55:47.203Z,90.40
2018-06-27T01:58:14.850Z,90.10
2018-06-27T02:00:42.496Z,90.10
2018-06-27T02:03:10.145Z,90.30
2018-06-27T02:05:37.786Z,90.60
2018-06-27T02:08:05.756Z,90.90
2018-06-27T02:10:33.434Z,90.90
2018-06-27T02:13:01.134Z,90.80
2018-06-27T02:15:28.748Z,90.70
2018-06-27T02:17:56.418Z,90.80
2018-06-27T02:20:24.054Z,90.50
2018-06-27T02:22:51.706Z,90.70
2018-06-27T02:25:19.385Z,90.40
2018-06-27T02:27:47.010Z,90.50
2018-06-27T02:30:14.687Z,90.60
2018-06-27T02:32:42.377Z,90.70
2018-06-27T02:35:10.051Z,90.70
2018-06-27T02:37:37.703Z,91.00
2018-06-27T02:40:05.438Z,91.10
2018-06-27T02:42:33.118Z,91.40
2018-06-27T02:45:00.790Z,91.30
2018-06-27T02:47:28.434Z,91.50
2018-06-27T02:49:56.206Z,91.50
2018-06-27T02:52:23.812Z,91.20
2018-06-27T02:54:51.518Z,91.50
2018-06-27T02:57:19.192Z,91.70
2018-06-27T02:59:46.901Z,91.80
2018-06-27T03:02:14.578Z,91.80
2018-06-27T03:04:42.257Z,91.80
2018-06-27T03:07:09.899Z,91.70
2018-06-27T03:09:37.598Z,92.10
2018-06-27T03:12:05.518Z,92.00
2018-06-27T03:14:33.179Z,92.30
2018-06-27T03:17:00.841Z,92.40
2018-06-27T03:19:28.542Z,92.50
2018-06-27T03:21:56.210Z,92.90
2018-06-27T03:24:23.886Z,92.50
2018-06-27T03:26:51.554Z,92.40
2018-06-27T03:29:19.213Z,92.30
2018-06-27T03:31:46.845Z,92.20
2018-06-27T03:34:14.538Z,92.20
2018-06-27T03:36:42.195Z,92.40
2018-06-27T03:39:09.928Z,93.00
2018-06-27T03:41:37.624Z,93.20
2018-06-27T03:44:05.405Z,93.80
2018-06-27T03:46:33.425Z,93.80
2018-06-27T03:49:01.228Z,93.90
2018-06-27T03:51:28.869Z,94.10
2018-06-27T03:53:58.114Z,94.60
2018-06-27T03:56:26.249Z,94.80
2018-06-27T03:58:53.951Z,95.10
2018-06-27T04:01:21.583Z,95.20
2018-06-27T04:03:49.239Z,95.10
2018-06-27T04:06:16.948Z,95.20
2018-06-27T04:08:44.621Z,95.30
2018-06-27T04:11:12.302Z,95.50
2018-06-27T04:13:39.969Z,95.40
2018-06-27T04:16:07.647Z,95.40
2018-06-27T04:18:35.319Z,95.40
2018-06-27T04:21:03.080Z,95.30
2018-06-27T04:23:30.744Z,95.60
2018-06-27T04:25:58.430Z,95.60
2018-06-27T04:28:26.058Z,95.20
2018-06-27T04:30:53.702Z,94.90
2018-06-27T04:33:21.363Z,95.00
2018-06-27T04:35:49.413Z,94.90
2018-06-27T04:38:17.620Z,94.50
2018-06-27T04:40:45.270Z,94.40
2018-06-27T04:43:12.951Z,94.20
2018-06-27T04:45:40.637Z,94.60
2018-06-27T04:48:08.397Z,94.50
2018-06-27T04:50:36.086Z,94.50
2018-06-27T04:53:03.792Z,94.50
2018-06-27T04:55:31.707Z,94.50
2018-06-27T04:57:59.367Z,94.20
2018-06-27T05:00:27.035Z,94.30
2018-06-27T05:02:54.675Z,94.20
2018-06-27T05:05:22.407Z,93.80
2018-06-27T05:07:50.147Z,94.30
2018-06-27T05:10:18.134Z,94.10
2018-06-27T05:12:45.757Z,93.60
2018-06-27T05:15:13.430Z,93.70
2018-06-27T05:17:41.061Z,93.40
2018-06-27T05:20:08.742Z,93.50
2018-06-27T05:22:36.395Z,93.40
2018-06-27T05:25:04.161Z,92.80
2018-06-27T05:27:31.843Z,93.10
2018-06-27T05:29:59.477Z,93.20
2018-06-27T05:32:27.118Z,93.10
2018-06-27T05:34:54.782Z,92.10
2018-06-27T05:39:50.006Z,92.70
2018-06-27T05:42:17.613Z,92.20
2018-06-27T05:44:45.256Z,92.70
2018-06-27T05:47:12.907Z,92.90
2018-06-27T05:49:40.578Z,93.10
2018-06-27T05:52:08.281Z,93.00
2018-06-27T05:54:35.934Z,92.30
2018-06-27T05:57:03.660Z,92.30
2018-06-27T05:59:31.329Z,91.80
2018-06-27T06:01:59.010Z,92.00
2018-06-27T06:04:26.742Z,91.90
2018-06-27T06:06:54.429Z,91.70
2018-06-27T06:09:22.518Z,91.80
2018-06-27T06:11:50.165Z,91.60
2018-06-27T06:14:18.286Z,91.50
2018-06-27T06:16:46.994Z,91.80
2018-06-27T06:19:14.680Z,90.90
2018-06-27T06:21:42.412Z,90.70
2018-06-27T06:24:10.131Z,91.10
2018-06-27T06:26:38.041Z,91.20
2018-06-27T06:29:05.747Z,90.80
2018-06-27T06:31:33.443Z,90.80
2018-06-27T06:34:01.086Z,91.00
2018-06-27T06:36:28.885Z,90.80
2018-06-27T06:38:56.893Z,90.30
2018-06-27T06:41:24.533Z,90.60
2018-06-27T06:43:52.215Z,89.60
2018-06-27T06:46:19.862Z,88.90
2018-06-27T06:48:47.517Z,89.30
2018-06-27T06:51:15.223Z,89.70
2018-06-27T06:53:42.947Z,89.00
2018-06-27T06:56:10.609Z,90.30
2018-06-27T06:58:38.295Z,89.30
2018-06-27T07:01:06.011Z,90.10
2018-06-27T07:03:33.664Z,87.40
2018-06-27T07:06:01.757Z,87.60
2018-06-27T07:08:29.457Z,86.30
2018-06-27T07:10:57.130Z,86.30
2018-06-27T07:13:24.742Z,87.10
2018-06-27T07:15:52.589Z,87.20
2018-06-27T07:18:20.253Z,86.70
2018-06-27T07:20:47.899Z,87.40
2018-06-27T07:23:15.574Z,86.60
2018-06-27T07:25:43.209Z,86.30
2018-06-27T07:28:10.895Z,85.80
2018-06-27T07:30:38.530Z,86.40
2018-06-27T07:33:06.186Z,86.80
2018-06-27T07:35:33.818Z,86.90
2018-06-27T07:38:01.463Z,86.80
2018-06-27T07:40:29.123Z,86.20
2018-06-27T07:42:56.862Z,86.60
2018-06-27T07:45:24.528Z,87.20
2018-06-27T07:47:52.197Z,87.40
2018-06-27T07:50:20.167Z,85.70
2018-06-27T07:52:47.966Z,83.50
2018-06-27T07:55:15.741Z,83.20
2018-06-27T07:57:43.370Z,81.70
2018-06-27T08:00:11.077Z,82.50
2018-06-27T08:02:38.758Z,82.10
2018-06-27T08:07:34.015Z,78.60
2018-06-27T08:10:01.743Z,79.90
2018-06-27T08:12:29.417Z,79.40
2018-06-27T08:14:57.202Z,77.50
2018-06-27T08:17:24.850Z,78.80
2018-06-27T08:19:52.511Z,79.40
2018-06-27T08:22:20.189Z,80.20
2018-06-27T08:24:47.844Z,77.40
2018-06-27T08:27:15.473Z,76.60
2018-06-27T08:29:43.160Z,77.30
2018-06-27T08:32:10.827Z,75.90
2018-06-27T08:34:38.479Z,76.70
2018-06-27T08:37:06.121Z,76.60
2018-06-27T08:39:33.795Z,72.00
2018-06-27T08:42:01.454Z,70.40
2018-06-27T08:44:29.179Z,72.20
2018-06-27T08:46:56.838Z,71.20
2018-06-27T08:49:24.504Z,70.50
2018-06-27T08:51:52.183Z,72.30
2018-06-27T08:54:19.885Z,70.40
2018-06-27T08:56:47.604Z,71.20
2018-06-27T08:59:15.291Z,71.50
2018-06-27T09:01:43.018Z,68.50
2018-06-27T09:04:10.711Z,71.50
2018-06-27T09:06:38.387Z,71.60
2018-06-27T09:09:08.317Z,71.20
2018-06-27T09:11:36.015Z,69.90
2018-06-27T09:14:03.791Z,70.30
2018-06-27T09:16:31.499Z,71.00
2018-06-27T09:18:59.141Z,71.30
2018-06-27T09:21:26.866Z,72.00
2018-06-27T09:23:54.511Z,66.80
2018-06-27T09:26:22.159Z,71.10
2018-06-27T09:28:49.975Z,67.80
2018-06-27T09:31:17.773Z,69.80
2018-06-27T09:33:45.382Z,67.10
2018-06-27T09:36:13.046Z,66.10
2018-06-27T09:38:40.718Z,66.50
2018-06-27T09:41:08.363Z,65.00
2018-06-27T09:43:35.994Z,66.70
2018-06-27T09:46:03.739Z,66.00
2018-06-27T09:48:31.388Z,65.10
2018-06-27T09:50:59.086Z,64.30
2018-06-27T09:53:26.791Z,64.30
2018-06-27T09:55:54.504Z,64.00
2018-06-27T09:58:22.161Z,64.40
2018-06-27T10:00:49.827Z,63.90
2018-06-27T10:03:17.517Z,62.90
2018-06-27T10:05:45.167Z,61.20
2018-06-27T10:08:12.850Z,61.50
2018-06-27T10:10:40.542Z,62.40
2018-06-27T10:13:08.218Z,62.00
2018-06-27T10:15:35.860Z,62.90
2018-06-27T10:18:03.554Z,60.50
2018-06-27T10:22:59.193Z,60.50
2018-06-27T10:25:26.863Z,61.60
2018-06-27T10:27:54.566Z,63.50
2018-06-27T10:30:22.203Z,60.30
2018-06-27T10:32:49.859Z,59.50
2018-06-27T10:35:17.530Z,58.00
2018-06-27T10:37:45.199Z,58.40
2018-06-27T10:40:12.866Z,59.20
2018-06-27T10:42:40.542Z,56.30
2018-06-27T10:45:08.215Z,57.30
2018-06-27T10:47:35.977Z,60.50
2018-06-27T10:50:03.847Z,58.30
2018-06-27T10:52:31.544Z,56.90
2018-06-27T10:54:59.334Z,57.90
2018-06-27T10:57:27.051Z,61.70
2018-06-27T10:59:54.703Z,61.70
2018-06-27T11:02:22.507Z,60.10
2018-06-27T11:04:50.200Z,57.30
2018-06-27T11:07:17.885Z,56.90
2018-06-27T11:09:45.592Z,57.60
2018-06-27T11:12:13.368Z,56.80
2018-06-27T11:14:41.028Z,53.40
2018-06-27T11:17:08.793Z,56.70
2018-06-27T11:19:36.896Z,55.60
2018-06-27T11:22:04.651Z,54.70
2018-06-27T11:24:32.289Z,56.40
2018-06-27T11:27:00.074Z,56.90
2018-06-27T11:29:27.720Z,55.70
2018-06-27T11:31:55.397Z,54.60
2018-06-27T11:34:23.031Z,54.90
2018-06-27T11:36:50.994Z,55.30
2018-06-27T11:39:18.663Z,54.00
2018-06-27T11:41:46.369Z,55.20
2018-06-27T11:44:14.062Z,56.00
2018-06-27T11:46:41.814Z,54.40
2018-06-27T11:49:09.544Z,52.30
2018-06-27T11:51:37.351Z,53.90
2018-06-27T11:54:05.104Z,49.90
2018-06-27T11:56:33.562Z,53.00
2018-06-27T11:59:01.688Z,51.40
2018-06-27T12:01:29.683Z,50.60
2018-06-27T12:03:58.206Z,51.10
2018-06-27T12:06:26.158Z,52.30
2018-06-27T12:08:54.035Z,52.50
2018-06-27T12:11:22.132Z,52.30
2018-06-27T12:13:50.012Z,50.30
2018-06-27T12:16:18.149Z,51.90
2018-06-27T12:21:14.243Z,51.20
2018-06-27T12:23:42.115Z,52.10
2018-06-27T12:26:10.188Z,51.90
2018-06-27T12:28:38.019Z,50.80
2018-06-27T12:31:05.886Z,51.30
2018-06-27T12:33:33.670Z,53.00
2018-06-27T12:36:01.526Z,53.10
2018-06-27T12:38:29.369Z,54.00
2018-06-27T12:40:57.228Z,55.10
2018-06-27T12:43:25.071Z,54.20
2018-06-27T12:45:52.924Z,53.30
2018-06-27T12:48:20.931Z,55.20
2018-06-27T12:50:48.811Z,53.40
2018-06-27T12:53:16.723Z,50.90
2018-06-27T12:55:44.599Z,52.30
2018-06-27T12:58:12.426Z,51.50
2018-06-27T13:00:40.238Z,53.10
2018-06-27T13:03:08.063Z,51.40
2018-06-27T13:05:35.860Z,51.00
2018-06-27T13:08:03.759Z,53.60
2018-06-27T13:10:31.585Z,52.30
2018-06-27T13:12:59.473Z,52.80
2018-06-27T13:15:27.285Z,52.60
2018-06-27T13:17:55.109Z,54.30
2018-06-27T13:20:22.946Z,56.60
2018-06-27T13:22:50.783Z,57.50
2018-06-27T13:25:18.593Z,58.90
2018-06-27T13:27:46.407Z,59.70
2018-06-27T13:30:14.338Z,62.00
2018-06-27T13:32:42.174Z,62.20
2018-06-27T13:35:10.079Z,62.80
2018-06-27T13:37:37.981Z,63.70
2018-06-27T13:40:05.897Z,63.70
2018-06-27T13:42:33.793Z,63.30
2018-06-27T13:45:01.704Z,65.20
2018-06-27T13:47:29.812Z,63.20
2018-06-27T13:49:57.624Z,64.40
2018-06-27T13:52:25.463Z,63.10
2018-06-27T13:54:57.734Z,61.30
2018-06-27T13:57:27.011Z,60.90
2018-06-27T13:59:55.202Z,61.00
2018-06-27T14:02:23.094Z,60.60
2018-06-27T14:04:51.008Z,58.30
2018-06-27T14:07:18.920Z,58.00
2018-06-27T14:09:46.893Z,57.30
2018-06-27T14:12:15.543Z,57.30
2018-06-27T14:14:43.373Z,56.40
2018-06-27T14:17:11.279Z,56.00
2018-06-27T14:19:39.096Z,56.40
2018-06-27T14:22:07.453Z,54.00
2018-06-27T14:24:35.646Z,54.90
2018-06-27T14:27:03.462Z,55.10
2018-06-27T14:29:31.377Z,54.00
2018-06-27T14:31:59.266Z,55.10
2018-06-27T14:34:27.079Z,56.10
2018-06-27T14:36:54.937Z,55.10
2018-06-27T14:39:22.745Z,52.70
2018-06-27T14:41:50.575Z,52.50
2018-06-27T14:44:18.646Z,53.00
2018-06-27T14:46:46.493Z,53.30
2018-06-27T14:49:14.399Z,55.70
2018-06-27T14:51:42.220Z,53.40
2018-06-27T14:54:10.152Z,54.60
2018-06-27T14:56:38.070Z,55.00
2018-06-27T14:59:06.010Z,55.70
2018-06-27T15:01:34.210Z,56.90
2018-06-27T15:04:02.068Z,58.20
2018-06-27T15:06:29.924Z,57.80
2018-06-27T15:08:57.771Z,58.40
2018-06-27T15:11:25.631Z,58.20
2018-06-27T15:13:53.427Z,59.90
2018-06-27T15:16:21.243Z,59.30
2018-06-27T15:18:49.051Z,56.70
2018-06-27T15:21:16.882Z,57.00
2018-06-27T15:23:44.828Z,55.70
2018-06-27T15:26:12.650Z,57.20
2018-06-27T15:28:40.461Z,57.00
2018-06-27T15:31:08.307Z,58.00
2018-06-27T15:33:36.198Z,57.90
2018-06-27T15:36:04.133Z,56.80
2018-06-27T15:38:31.966Z,56.30
2018-06-27T15:40:59.744Z,56.00
2018-06-27T15:43:27.546Z,53.80
2018-06-27T15:45:55.399Z,54.10
2018-06-27T15:48:23.361Z,55.00
2018-06-27T15:50:51.251Z,54.00
2018-06-27T15:53:19.094Z,54.10
2018-06-27T15:55:46.923Z,53.70
2018-06-27T15:58:14.765Z,54.20
2018-06-27T16:00:42.624Z,53.30
2018-06-27T16:03:10.438Z,53.80
2018-06-27T16:05:38.283Z,53.80
2018-06-27T16:08:06.133Z,54.70
2018-06-27T16:10:33.988Z,52.90
2018-06-27T16:13:01.785Z,53.00
2018-06-27T16:15:29.487Z,54.80
2018-06-27T16:17:57.109Z,54.80
2018-06-27T16:20:24.855Z,55.20
2018-06-27T16:22:52.528Z,55.30
2018-06-27T16:25:20.187Z,54.80
2018-06-27T16:27:47.834Z,56.10
2018-06-27T16:30:15.515Z,55.70
2018-06-27T16:32:43.266Z,56.90
2018-06-27T16:35:11.075Z,56.80
2018-06-27T16:37:38.918Z,56.40
2018-06-27T16:40:06.771Z,54.60
2018-06-27T16:42:34.584Z,54.50
2018-06-27T16:45:02.479Z,55.10
2018-06-27T16:47:30.262Z,55.10
2018-06-27T16:49:58.057Z,55.70
2018-06-27T16:52:25.888Z,55.30
2018-06-27T16:54:53.704Z,55.40
2018-06-27T16:57:21.574Z,55.50
2018-06-27T16:59:49.402Z,56.70
2018-06-27T17:02:17.232Z,55.70
2018-06-27T17:04:45.046Z,57.30
2018-06-27T17:07:12.817Z,57.30
2018-06-27T17:09:40.663Z,56.00
2018-06-27T17:12:08.457Z,56.90
2018-06-27T17:14:36.232Z,56.40
2018-06-27T17:17:04.112Z,57.00
2018-06-27T17:19:31.963Z,58.20
2018-06-27T17:21:59.749Z,57.60
2018-06-27T17:24:27.550Z,58.60
2018-06-27T17:26:55.381Z,59.30
2018-06-27T17:29:23.301Z,60.20
2018-06-27T17:31:51.154Z,58.80
2018-06-27T17:34:18.985Z,58.80
2018-06-27T17:36:47.244Z,59.40
2018-06-27T17:39:15.092Z,59.00
2018-06-27T17:41:42.964Z,59.80
2018-06-27T17:44:10.778Z,60.60
2018-06-27T17:46:38.572Z,61.60
2018-06-27T17:49:06.383Z,62.10
2018-06-27T17:51:34.199Z,63.30
2018-06-27T17:54:02.005Z,63.50
2018-06-27T17:56:29.939Z,63.10
2018-06-27T17:58:57.757Z,63.80
2018-06-27T18:01:25.590Z,64.90
2018-06-27T18:03:53.830Z,65.30
2018-06-27T18:06:21.642Z,64.70
2018-06-27T18:08:49.514Z,65.50
2018-06-27T18:11:17.281Z,66.30
2018-06-27T18:13:45.127Z,66.30
2018-06-27T18:16:12.922Z,66.20
2018-06-27T18:18:40.822Z,65.10
2018-06-27T18:21:08.649Z,64.60
2018-06-27T18:23:36.474Z,65.30
2018-06-27T18:26:04.654Z,65.20
2018-06-27T18:28:32.434Z,64.50
2018-06-27T18:31:00.262Z,64.70
2018-06-27T18:33:28.118Z,67.00
2018-06-27T18:35:55.943Z,69.40
2018-06-27T18:38:23.759Z,70.30
2018-06-27T18:40:51.603Z,70.60
2018-06-27T18:43:19.426Z,72.30
2018-06-27T18:45:47.319Z,71.90
2018-06-27T18:48:15.122Z,73.10
2018-06-27T18:50:42.924Z,73.70
2018-06-27T18:53:10.725Z,75.40
2018-06-27T18:55:38.568Z,75.50
2018-06-27T18:58:06.398Z,76.30
2018-06-27T19:00:34.221Z,77.60
2018-06-27T19:03:02.103Z,77.20
2018-06-27T19:05:29.890Z,78.00
2018-06-27T19:07:57.804Z,79.80
2018-06-27T19:10:25.679Z,79.10
2018-06-27T19:12:53.830Z,78.90
2018-06-27T19:15:21.751Z,79.70
2018-06-27T19:17:49.583Z,80.20
2018-06-27T19:20:17.459Z,80.30
2018-06-27T19:22:45.250Z,80.90
2018-06-27T19:25:13.067Z,81.40
2018-06-27T19:27:40.879Z,82.30
2018-06-27T19:30:09.186Z,82.10
2018-06-27T19:32:37.055Z,82.30
2018-06-27T19:35:05.183Z,82.80
2018-06-27T19:37:32.999Z,82.70
2018-06-27T19:40:02.057Z,82.50
2018-06-27T19:45:00.810Z,82.70
2018-06-27T19:47:28.711Z,83.00
2018-06-27T19:49:56.568Z,83.00
2018-06-27T19:52:24.451Z,83.70
2018-06-27T19:54:52.228Z,83.50
2018-06-27T19:57:20.055Z,83.40
2018-06-27T19:59:47.841Z,84.00
2018-06-27T20:02:15.782Z,84.10
2018-06-27T20:04:43.617Z,84.30
2018-06-27T20:07:11.497Z,84.40
2018-06-27T20:09:39.360Z,84.40
2018-06-27T20:12:07.177Z,84.50
2018-06-27T20:14:35.073Z,84.20
2018-06-27T20:17:02.923Z,84.30
2018-06-27T20:19:30.765Z,84.50
2018-06-27T20:21:58.701Z,84.80
2018-06-27T20:24:27.410Z,84.90
2018-06-27T20:26:55.286Z,85.00
2018-06-27T20:29:23.091Z,84.90
2018-06-27T20:31:51.044Z,85.00
2018-06-27T20:34:18.919Z,84.90
2018-06-27T20:36:46.774Z,85.10
2018-06-27T20:39:14.621Z,85.20
2018-06-27T20:41:42.489Z,85.20
2018-06-27T20:44:10.371Z,85.20
2018-06-27T20:46:38.279Z,85.40
2018-06-27T20:49:06.134Z,85.80
2018-06-27T20:51:33.950Z,86.10
2018-06-27T20:54:01.984Z,86.00
2018-06-27T20:56:29.797Z,86.50
2018-06-27T20:58:57.688Z,86.40
2018-06-27T21:01:25.599Z,86.20
2018-06-27T21:03:53.416Z,86.10
2018-06-27T21:06:21.242Z,86.10
2018-06-27T21:08:49.078Z,86.50
2018-06-27T21:11:16.907Z,87.00
2018-06-27T21:13:44.727Z,87.40
2018-06-27T21:16:12.567Z,87.60
2018-06-27T21:18:40.255Z,87.50
2018-06-27T21:21:07.923Z,87.40
2018-06-27T21:23:35.706Z,87.50
2018-06-27T21:26:03.372Z,88.00
2018-06-27T21:28:31.061Z,88.00
2018-06-27T21:30:58.751Z,88.30
2018-06-27T21:33:26.387Z,88.30
2018-06-27T21:35:54.063Z,88.10
2018-06-27T21:38:21.693Z,88.30
2018-06-27T21:40:49.431Z,88.20
2018-06-27T21:43:17.063Z,88.10
2018-06-27T21:45:44.737Z,88.30
2018-06-27T21:48:12.387Z,88.30
2018-06-27T21:50:40.066Z,88.20
2018-06-27T21:53:07.777Z,88.10
2018-06-27T21:55:35.381Z,88.10
2018-06-27T21:58:03.166Z,88.20
2018-06-27T22:00:32.003Z,88.40
2018-06-27T22:03:00.151Z,88.40
2018-06-27T22:05:27.769Z,88.10
2018-06-27T22:07:55.523Z,88.40
2018-06-27T22:10:23.243Z,88.60
2018-06-27T22:12:50.932Z,88.70
2018-06-27T22:15:18.573Z,88.70
2018-06-27T22:17:46.386Z,88.70
2018-06-27T22:20:14.029Z,88.70
2018-06-27T22:22:41.667Z,88.80
2018-06-27T22:25:09.415Z,88.90
2018-06-27T22:27:37.048Z,88.90
2018-06-27T22:30:04.960Z,88.70
2018-06-27T22:32:32.842Z,88.20
2018-06-27T22:35:00.505Z,87.20
2018-06-27T22:37:28.159Z,87.00
2018-06-27T22:39:55.826Z,86.70
2018-06-27T22:42:23.571Z,87.00
2018-06-27T22:44:51.387Z,87.00
2018-06-27T22:47:19.019Z,87.30
2018-06-27T22:49:46.681Z,87.50
2018-06-27T22:52:14.382Z,87.60
2018-06-27T22:54:42.066Z,87.40
2018-06-27T22:57:09.703Z,87.60
2018-06-27T22:59:37.378Z,87.30
2018-06-27T23:02:05.372Z,87.20
2018-06-27T23:04:33.053Z,87.30
2018-06-27T23:07:00.731Z,87.50
2018-06-27T23:09:28.387Z,87.90
2018-06-27T23:11:56.053Z,87.70
2018-06-27T23:14:23.726Z,87.80
2018-06-27T23:16:51.337Z,87.50
2018-06-27T23:19:19.020Z,87.10
2018-06-27T23:21:46.655Z,87.00
2018-06-27T23:24:14.274Z,87.60
2018-06-27T23:26:41.915Z,86.90
2018-06-27T23:29:09.557Z,86.30
2018-06-27T23:31:37.227Z,85.70
2018-06-27T23:34:04.920Z,85.50
2018-06-27T23:36:32.652Z,85.30
2018-06-27T23:39:00.308Z,84.90
2018-06-27T23:41:27.972Z,84.40
2018-06-27T23:43:55.593Z,84.10
2018-06-27T23:46:23.230Z,83.60
2018-06-27T23:48:50.898Z,83.50
2018-06-27T23:51:18.559Z,83.10
2018-06-27T23:53:46.218Z,83.40
2018-06-27T23:56:13.899Z,83.60
2018-06-27T23:58:41.560Z,83.00
